Gaza, Egypt

17:18 EET 6. Únor 2016 (GMT +0200)
Agicultural Area | | Change Station
CLOSE
Current Station
Osobní povětrnostní stanice
Location: Kokhav Michael, SOUTH DISTRICT
Nadmořská výška: 328 ft
Poblíž povětrnostní stanice

Výška 328 ft 31.63 °N, 34.67 °E | Updated 8 minutes ago

Zataženo
Zataženo
53.1 °F
Pocit jako 53.1 °F
S
4.9
Vítr proměnlivý Vítr od ZJZ
Gusts 7.4 mil/h

Dnes
Vysoké -- | Nízké -- °F
--% Možnost srážek
Včera
Vysoké -- | Nízké -- °F
Precip. -- inčů
Tlak 29.95 inčů
Viditelnost 5.0 mílí
Zataženo Polojasno 2500 ft
Skoro zataženo 4000 ft
Rosný bod 37 °F
Vlhkost 54%
Dešťové srážky 0.00 inčů
Sněhová pokrývka Není k dispozici
6:32 AM 5:20 PM
Ubývající srpek, 5% visible
METAR LLBG 061450Z 24012KT 8000 -RA SCT025 BKN040 11/08 Q1014 TEMPO 22018G28KT 5000 SHRA FEW020TCU BKN025
Tlak 29.95 inčů
Viditelnost 5.0 mílí
Zataženo Polojasno 2500 ft
Skoro zataženo 4000 ft
Rosný bod 37 °F
Vlhkost 54%
Dešťové srážky 0.00 inčů
Sněhová pokrývka Není k dispozici
6:32 AM 5:20 PM
Ubývající srpek, 5% visible
METAR LLBG 061450Z 24012KT 8000 -RA SCT025 BKN040 11/08 Q1014 TEMPO 22018G28KT 5000 SHRA FEW020TCU BKN025

10-Day Weather Forecast

No radar image for this location.
×

Almanac

Astronomie

Feb. 06, 2016 Východ Západ
Skutečný čas
Občanský soumrak
Námořní soumrak
Astronomický soumrak
Měsíc
Délka denního světla
Délka dne
Tomorrow will be .
, % of the Moon is Illuminated

Dnešní extrémy

Nejvyšší hodnoty ve státě Nejnižší hodnoty ve státě

Community

WunderPhotos

Upload Photos

1,890,986 snímků staženo!

WunderBlog® & News

Nearby

Kvalita ovzduší

  Kvalita ovzduší Index kvality ovzduší Polutant
Not available.

Výška sněhu

Station Hloubka Nadmořská výška

Seizmická činnost

Město Distance Mag. Čas & datum
Minimální zobrazený rozsah je 2.5.

Pobřežní teplota vody

Lokalita Teplota

Stations

Poblíž povětrnostní stanice

Lokace stanice Tepl. Ochlazování větrem Rosný bod Vlhkost Vítr Precip. Výška Čas hlášení Typ